Time,TemperatureF,DewpointF,PressureIn,WindDirection,WindDirectionDegrees,WindSpeedMPH,WindSpeedGustMPH,Humidity,HourlyPrecipIn,Conditions,Clouds,dailyrainin,SoftwareType,DateUTC
2013-10-06 00:07:00,52.0,41.0,30.05,SE,135,0.0,-999.0,66,-99.99,,,0.00,Acu-Link.com,2013-10-06 07:07:00,
2013-10-06 00:23:00,52.0,40.6,30.05,SE,135,0.0,-999.0,65,-99.99,,,0.00,Acu-Link.com,2013-10-06 07:23:00,
2013-10-06 00:38:00,51.8,40.4,30.06,ENE,67,0.0,-999.0,65,-99.99,,,0.00,Acu-Link.com,2013-10-06 07:38:00,
2013-10-06 00:53:00,51.1,40.5,30.05,ENE,67,0.0,-999.0,67,-99.99,,,0.00,Acu-Link.com,2013-10-06 07:53:00,
2013-10-06 01:09:00,50.5,38.8,30.06,ENE,67,0.0,-999.0,64,-99.99,,,0.00,Acu-Link.com,2013-10-06 08:09:00,
2013-10-06 01:24:00,50.4,36.2,30.06,ENE,67,0.0,-999.0,58,-99.99,,,0.00,Acu-Link.com,2013-10-06 08:24:00,
2013-10-06 01:39:00,51.3,39.9,30.06,ENE,67,0.0,-999.0,65,-99.99,,,0.00,Acu-Link.com,2013-10-06 08:39:00,
2013-10-06 01:54:00,50.4,37.5,30.05,ENE,67,0.0,-999.0,61,-99.99,,,0.00,Acu-Link.com,2013-10-06 08:54:00,
2013-10-06 02:09:00,49.6,36.3,30.06,ENE,67,0.0,-999.0,60,-99.99,,,0.00,Acu-Link.com,2013-10-06 09:09:00,
2013-10-06 02:25:00,49.1,25.8,30.06,NNE,22,0.0,-999.0,40,-99.99,,,0.00,Acu-Link.com,2013-10-06 09:25:00,
2013-10-06 02:40:00,48.6,28.2,30.06,NNE,22,0.0,-999.0,45,-99.99,,,0.00,Acu-Link.com,2013-10-06 09:40:00,
2013-10-06 02:55:00,49.3,3.6,30.06,NNE,22,0.0,-999.0,15,-99.99,,,0.00,Acu-Link.com,2013-10-06 09:55:00,
2013-10-06 03:10:00,46.8,-24.8,30.04,NNE,22,0.0,-999.0,4,-99.99,,,0.00,Acu-Link.com,2013-10-06 10:10:00,
2013-10-06 03:25:00,47.3,-48.6,30.04,ENE,67,0.0,-999.0,1,-99.99,,,0.00,Acu-Link.com,2013-10-06 10:25:00,
2013-10-06 03:41:00,46.2,-49.3,30.04,ENE,67,0.0,-999.0,1,-99.99,,,0.00,Acu-Link.com,2013-10-06 10:41:00,
2013-10-06 03:56:00,45.7,-49.6,30.04,SSW,202,0.0,-999.0,1,-99.99,,,0.00,Acu-Link.com,2013-10-06 10:56:00,
2013-10-06 04:12:00,45.3,-49.8,30.04,SW,225,0.0,-999.0,1,-99.99,,,0.00,Acu-Link.com,2013-10-06 11:12:00,
2013-10-06 04:27:00,45.7,-49.6,30.04,SE,135,0.0,-999.0,1,-99.99,,,0.00,Acu-Link.com,2013-10-06 11:27:00,
2013-10-06 04:42:00,45.5,-49.7,30.04,North,0,0.0,-999.0,1,-99.99,,,0.00,Acu-Link.com,2013-10-06 11:42:00,
2013-10-06 04:58:00,45.1,-50.0,30.04,South,180,0.0,-999.0,1,-99.99,,,0.00,Acu-Link.com,2013-10-06 11:58:00,
2013-10-06 05:13:00,44.8,-50.1,30.04,SSE,157,0.0,-999.0,1,-99.99,,,0.00,Acu-Link.com,2013-10-06 12:13:00,
2013-10-06 05:28:00,45.0,-50.0,30.04,South,180,0.0,-999.0,1,-99.99,,,0.00,Acu-Link.com,2013-10-06 12:28:00,
2013-10-06 05:43:00,44.4,-50.4,30.05,WNW,292,0.0,-999.0,1,-99.99,,,0.00,Acu-Link.com,2013-10-06 12:43:00,
2013-10-06 05:58:00,44.6,-50.3,30.05,West,270,0.0,-999.0,1,-99.99,,,0.00,Acu-Link.com,2013-10-06 12:58:00,
2013-10-06 06:14:00,44.4,-50.4,30.05,SE,135,0.0,-999.0,1,-99.99,,,0.00,Acu-Link.com,2013-10-06 13:14:00,
2013-10-06 06:29:00,44.2,-50.5,30.05,SE,135,0.0,-999.0,1,-99.99,,,0.00,Acu-Link.com,2013-10-06 13:29:00,
2013-10-06 06:44:00,43.7,-50.8,30.06,NW,315,0.0,-999.0,1,-99.99,,,0.00,Acu-Link.com,2013-10-06 13:44:00,
2013-10-06 07:00:00,43.7,-50.8,30.06,WNW,292,0.0,-999.0,1,-99.99,,,0.00,Acu-Link.com,2013-10-06 14:00:00,
2013-10-06 07:15:00,43.3,-51.1,30.06,NE,45,0.0,-999.0,1,-99.99,,,0.00,Acu-Link.com,2013-10-06 14:15:00,
2013-10-06 07:30:00,43.7,-50.8,30.07,SE,135,0.0,-999.0,1,-99.99,,,0.00,Acu-Link.com,2013-10-06 14:30:00,
2013-10-06 07:45:00,45.3,-49.8,30.07,South,180,0.0,-999.0,1,-99.99,,,0.00,Acu-Link.com,2013-10-06 14:45:00,
2013-10-06 08:00:00,49.3,-47.4,30.08,West,270,0.0,-999.0,1,-99.99,,,0.00,Acu-Link.com,2013-10-06 15:00:00,
2013-10-06 08:16:00,53.6,-44.7,30.08,WNW,292,0.0,-999.0,1,-99.99,,,0.00,Acu-Link.com,2013-10-06 15:16:00,
2013-10-06 08:31:00,57.2,47.9,30.08,WNW,292,0.0,-999.0,71,-99.99,,,0.00,Acu-Link.com,2013-10-06 15:31:00,
2013-10-06 08:46:00,60.4,46.0,30.09,WNW,292,2.7,-999.0,59,-99.99,,,0.00,Acu-Link.com,2013-10-06 15:46:00,
2013-10-06 09:01:00,63.5,46.6,30.08,ENE,67,1.7,-999.0,54,-99.99,,,0.00,Acu-Link.com,2013-10-06 16:01:00,
2013-10-06 09:17:00,61.2,43.4,30.09,West,270,2.7,-999.0,52,-99.99,,,0.00,Acu-Link.com,2013-10-06 16:17:00,
2013-10-06 09:32:00,64.0,45.0,30.09,West,270,1.7,-999.0,50,-99.99,,,0.00,Acu-Link.com,2013-10-06 16:32:00,
2013-10-06 09:47:00,64.8,43.5,30.09,WNW,292,3.7,-999.0,46,-99.99,,,0.00,Acu-Link.com,2013-10-06 16:47:00,
2013-10-06 10:02:00,66.2,43.6,30.09,WSW,247,2.2,-999.0,44,-99.99,,,0.00,Acu-Link.com,2013-10-06 17:02:00,
2013-10-06 10:17:00,68.7,44.0,30.09,NE,45,1.1,-999.0,41,-99.99,,,0.00,Acu-Link.com,2013-10-06 17:17:00,
2013-10-06 10:33:00,70.0,43.2,30.08,NE,45,2.7,-999.0,38,-99.99,,,0.00,Acu-Link.com,2013-10-06 17:33:00,
2013-10-06 10:48:00,70.9,41.9,30.08,WNW,292,2.7,-999.0,35,-99.99,,,0.00,Acu-Link.com,2013-10-06 17:48:00,
2013-10-06 11:03:00,73.2,43.9,30.07,NNW,337,1.7,-999.0,35,-99.99,,,0.00,Acu-Link.com,2013-10-06 18:03:00,
2013-10-06 11:18:00,73.8,42.1,30.07,NNE,22,0.0,-999.0,32,-99.99,,,0.00,Acu-Link.com,2013-10-06 18:18:00,
2013-10-06 11:34:00,75.7,42.9,30.06,WSW,247,2.2,-999.0,31,-99.99,,,0.00,Acu-Link.com,2013-10-06 18:34:00,
2013-10-06 11:49:00,76.6,42.8,30.06,SW,225,2.7,-999.0,30,-99.99,,,0.00,Acu-Link.com,2013-10-06 18:49:00,
2013-10-06 12:04:00,75.6,41.1,30.05,West,270,2.2,-999.0,29,-99.99,,,0.00,Acu-Link.com,2013-10-06 19:04:00,
2013-10-06 12:19:00,76.6,41.9,30.04,NNW,337,3.7,-999.0,29,-99.99,,,0.00,Acu-Link.com,2013-10-06 19:19:00,
2013-10-06 12:34:00,77.4,43.5,30.04,ENE,67,2.7,-999.0,30,-99.99,,,0.00,Acu-Link.com,2013-10-06 19:34:00,
2013-10-06 12:50:00,79.3,40.4,30.04,WNW,292,3.7,-999.0,25,-99.99,,,0.00,Acu-Link.com,2013-10-06 19:50:00,
2013-10-06 13:05:00,79.9,39.9,30.03,NNW,337,1.1,-999.0,24,-99.99,,,0.00,Acu-Link.com,2013-10-06 20:05:00,
2013-10-06 13:20:00,82.4,39.7,30.02,West,270,2.7,-999.0,22,-99.99,,,0.00,Acu-Link.com,2013-10-06 20:20:00,
2013-10-06 13:36:00,82.8,38.9,30.01,West,270,0.0,-999.0,21,-99.99,,,0.00,Acu-Link.com,2013-10-06 20:36:00,
2013-10-06 13:51:00,84.9,38.0,30.00,ENE,67,2.7,-999.0,19,-99.99,,,0.00,Acu-Link.com,2013-10-06 20:51:00,
2013-10-06 14:06:00,85.8,37.4,29.99,NNE,22,2.7,-999.0,18,-99.99,,,0.00,Acu-Link.com,2013-10-06 21:06:00,
2013-10-06 14:22:00,84.0,34.5,29.98,NNE,22,1.7,-999.0,17,-99.99,,,0.00,Acu-Link.com,2013-10-06 21:22:00,
2013-10-06 14:37:00,85.3,32.4,29.98,WSW,247,2.2,-999.0,15,-99.99,,,0.00,Acu-Link.com,2013-10-06 21:37:00,
2013-10-06 14:52:00,84.2,34.6,29.97,SSE,157,0.0,-999.0,17,-99.99,,,0.00,Acu-Link.com,2013-10-06 21:52:00,
2013-10-06 15:08:00,84.2,37.5,29.97,NW,315,0.0,-999.0,19,-99.99,,,0.00,Acu-Link.com,2013-10-06 22:08:00,
2013-10-06 15:23:00,86.7,38.1,29.96,East,90,2.2,-999.0,18,-99.99,,,0.00,Acu-Link.com,2013-10-06 22:23:00,
2013-10-06 15:38:00,85.5,34.2,29.96,West,270,2.7,-999.0,16,-99.99,,,0.00,Acu-Link.com,2013-10-06 22:38:00,
2013-10-06 15:53:00,84.4,36.2,29.95,SSW,202,0.0,-999.0,18,-99.99,,,0.00,Acu-Link.com,2013-10-06 22:53:00,
2013-10-06 16:09:00,85.6,34.2,29.94,South,180,1.1,-999.0,16,-99.99,,,0.00,Acu-Link.com,2013-10-06 23:09:00,
2013-10-06 16:24:00,83.3,35.4,29.94,SSW,202,0.0,-999.0,18,-99.99,,,0.00,Acu-Link.com,2013-10-06 23:24:00,
2013-10-06 16:39:00,84.9,35.2,29.93,NNW,337,0.0,-999.0,17,-99.99,,,0.00,Acu-Link.com,2013-10-06 23:39:00,
2013-10-06 16:54:00,84.9,33.7,29.93,NNE,22,0.0,-999.0,16,-99.99,,,0.00,Acu-Link.com,2013-10-06 23:54:00,
2013-10-06 17:10:00,85.8,31.1,29.92,ESE,112,0.0,-999.0,14,-99.99,,,0.00,Acu-Link.com,2013-10-07 00:10:00,
2013-10-06 17:25:00,83.8,27.7,29.92,NW,315,0.0,-999.0,13,-99.99,,,0.00,Acu-Link.com,2013-10-07 00:25:00,
2013-10-06 17:40:00,84.2,37.5,29.92,SE,135,0.0,-999.0,19,-99.99,,,0.00,Acu-Link.com,2013-10-07 00:40:00,
2013-10-06 17:55:00,82.9,43.4,29.92,ESE,112,0.0,-999.0,25,-99.99,,,0.00,Acu-Link.com,2013-10-07 00:55:00,
2013-10-06 18:11:00,79.3,46.0,29.92,South,180,0.0,-999.0,31,-99.99,,,0.00,Acu-Link.com,2013-10-07 01:11:00,
2013-10-06 18:26:00,77.0,46.5,29.92,ESE,112,0.0,-999.0,34,-99.99,,,0.00,Acu-Link.com,2013-10-07 01:26:00,
2013-10-06 18:41:00,73.6,46.4,29.91,ESE,112,0.0,-999.0,38,-99.99,,,0.00,Acu-Link.com,2013-10-07 01:41:00,
2013-10-06 18:57:00,70.5,49.3,29.92,SSW,202,0.0,-999.0,47,-99.99,,,0.00,Acu-Link.com,2013-10-07 01:57:00,
2013-10-06 19:12:00,68.7,49.8,29.92,ESE,112,0.0,-999.0,51,-99.99,,,0.00,Acu-Link.com,2013-10-07 02:12:00,
2013-10-06 19:27:00,66.9,49.2,29.92,SE,135,0.0,-999.0,53,-99.99,,,0.00,Acu-Link.com,2013-10-07 02:27:00,
2013-10-06 19:43:00,65.5,49.4,29.91,WNW,292,0.0,-999.0,56,-99.99,,,0.00,Acu-Link.com,2013-10-07 02:43:00,
2013-10-06 19:58:00,64.6,49.9,29.92,South,180,0.0,-999.0,59,-99.99,,,0.00,Acu-Link.com,2013-10-07 02:58:00,
2013-10-06 20:13:00,63.3,50.1,29.91,SSE,157,0.0,-999.0,62,-99.99,,,0.00,Acu-Link.com,2013-10-07 03:13:00,
2013-10-06 20:28:00,62.2,50.3,29.91,ENE,67,0.0,-999.0,65,-99.99,,,0.00,Acu-Link.com,2013-10-07 03:28:00,
2013-10-06 20:43:00,61.5,49.6,29.91,South,180,0.0,-999.0,65,-99.99,,,0.00,Acu-Link.com,2013-10-07 03:43:00,
2013-10-06 20:59:00,61.0,48.7,29.92,ESE,112,0.0,-999.0,64,-99.99,,,0.00,Acu-Link.com,2013-10-07 03:59:00,
2013-10-06 21:14:00,60.3,49.7,29.92,West,270,0.0,-999.0,68,-99.99,,,0.00,Acu-Link.com,2013-10-07 04:14:00,
2013-10-06 21:29:00,59.7,49.1,29.92,East,90,0.0,-999.0,68,-99.99,,,0.00,Acu-Link.com,2013-10-07 04:29:00,
2013-10-06 21:45:00,59.5,48.9,29.92,NNE,22,0.0,-999.0,68,-99.99,,,0.00,Acu-Link.com,2013-10-07 04:45:00,
2013-10-06 22:00:00,58.8,48.3,29.92,West,270,0.0,-999.0,68,-99.99,,,0.00,Acu-Link.com,2013-10-07 05:00:00,
2013-10-06 22:15:00,58.6,48.1,29.92,SE,135,0.0,-999.0,68,-99.99,,,0.00,Acu-Link.com,2013-10-07 05:15:00,
2013-10-06 22:30:00,58.3,48.6,29.92,WNW,292,0.0,-999.0,70,-99.99,,,0.00,Acu-Link.com,2013-10-07 05:30:00,
2013-10-06 22:47:00,58.1,48.4,29.92,South,180,0.0,-999.0,70,-99.99,,,0.00,Acu-Link.com,2013-10-07 05:47:00,
2013-10-06 23:02:00,58.1,48.4,29.92,East,90,0.0,-999.0,70,-99.99,,,0.00,Acu-Link.com,2013-10-07 06:02:00,
2013-10-06 23:17:00,58.6,48.8,29.92,SE,135,1.7,-999.0,70,-99.99,,,0.00,Acu-Link.com,2013-10-07 06:17:00,
2013-10-06 23:33:00,59.2,49.4,29.92,East,90,2.2,-999.0,70,-99.99,,,0.00,Acu-Link.com,2013-10-07 06:33:00,
2013-10-06 23:48:00,58.3,48.2,29.92,East,90,0.0,-999.0,69,-99.99,,,0.00,Acu-Link.com,2013-10-07 06:48:00,